createdAt,value
2018-05-25T00:00:47.366Z,83.66
2018-05-25T00:03:15.497Z,83.83
2018-05-25T00:05:43.633Z,84.03
2018-05-25T00:08:11.780Z,84.07
2018-05-25T00:10:39.922Z,84.08
2018-05-25T00:13:08.034Z,83.86
2018-05-25T00:15:39.649Z,84.10
2018-05-25T00:18:07.771Z,84.00
2018-05-25T00:20:35.916Z,84.29
2018-05-25T00:23:04.079Z,84.25
2018-05-25T00:25:32.187Z,84.23
2018-05-25T00:28:00.323Z,84.46
2018-05-25T00:30:28.470Z,84.63
2018-05-25T00:32:56.575Z,84.75
2018-05-25T00:35:24.720Z,84.91
2018-05-25T00:37:52.888Z,84.99
2018-05-25T00:40:21.290Z,84.84
2018-05-25T00:42:49.432Z,84.68
2018-05-25T00:45:17.557Z,84.43
2018-05-25T00:47:45.684Z,84.46
2018-05-25T00:50:13.808Z,84.47
2018-05-25T00:52:42.442Z,84.60
2018-05-25T00:55:22.386Z,84.46
2018-05-25T00:57:50.513Z,84.83
2018-05-25T01:00:18.667Z,84.71
2018-05-25T01:02:46.792Z,84.65
2018-05-25T01:05:14.933Z,84.56
2018-05-25T01:07:43.043Z,84.61
2018-05-25T01:10:11.191Z,84.99
2018-05-25T01:12:39.325Z,85.16
2018-05-25T01:15:07.439Z,85.18
2018-05-25T01:17:35.607Z,85.17
2018-05-25T01:20:03.724Z,84.83
2018-05-25T01:22:31.912Z,84.78
2018-05-25T01:25:00.059Z,84.54
2018-05-25T01:27:28.187Z,84.75
2018-05-25T01:29:56.337Z,84.58
2018-05-25T01:32:24.462Z,84.89
2018-05-25T01:34:52.581Z,84.76
2018-05-25T01:37:20.721Z,84.62
2018-05-25T01:39:48.846Z,84.40
2018-05-25T01:42:16.985Z,84.54
2018-05-25T01:44:45.108Z,84.84
2018-05-25T01:47:13.241Z,84.90
2018-05-25T01:49:41.391Z,85.46
2018-05-25T01:52:09.498Z,85.61
2018-05-25T01:54:37.645Z,85.32
2018-05-25T01:57:05.804Z,85.37
2018-05-25T01:59:33.930Z,85.47
2018-05-25T02:02:02.073Z,85.51
2018-05-25T02:04:30.215Z,85.11
2018-05-25T02:06:58.354Z,85.18
2018-05-25T02:09:26.484Z,85.47
2018-05-25T02:11:54.595Z,85.67
2018-05-25T02:14:22.737Z,85.49
2018-05-25T02:16:50.866Z,85.21
2018-05-25T02:19:19.385Z,85.16
2018-05-25T02:21:47.623Z,84.84
2018-05-25T02:24:15.750Z,84.91
2018-05-25T02:26:43.885Z,84.77
2018-05-25T02:29:12.032Z,84.91
2018-05-25T02:31:40.169Z,84.90
2018-05-25T02:34:08.301Z,84.84
2018-05-25T02:36:36.425Z,85.23
2018-05-25T02:39:04.572Z,85.11
2018-05-25T02:41:32.704Z,85.08
2018-05-25T02:44:00.857Z,85.15
2018-05-25T02:46:28.981Z,85.44
2018-05-25T02:48:57.127Z,85.43
2018-05-25T02:51:25.261Z,85.60
2018-05-25T02:53:53.375Z,86.11
2018-05-25T02:56:21.530Z,85.85
2018-05-25T02:58:49.666Z,86.22
2018-05-25T03:01:17.789Z,86.33
2018-05-25T03:03:45.912Z,86.24
2018-05-25T03:06:14.033Z,86.63
2018-05-25T03:08:42.181Z,86.46
2018-05-25T03:11:10.313Z,86.53
2018-05-25T03:13:38.451Z,86.73
2018-05-25T03:16:06.598Z,86.64
2018-05-25T03:18:35.070Z,86.84
2018-05-25T03:21:03.653Z,86.98
2018-05-25T03:23:31.822Z,86.96
2018-05-25T03:25:59.945Z,87.03
2018-05-25T03:28:28.085Z,86.93
2018-05-25T03:30:56.214Z,87.18
2018-05-25T03:33:24.362Z,87.42
2018-05-25T03:35:52.520Z,87.50
2018-05-25T03:38:20.648Z,87.89
2018-05-25T03:40:48.782Z,87.80
2018-05-25T03:43:16.897Z,87.87
2018-05-25T03:45:45.048Z,87.86
2018-05-25T03:48:13.177Z,87.80
2018-05-25T03:50:41.306Z,87.76
2018-05-25T03:53:09.443Z,87.95
2018-05-25T03:55:37.574Z,87.93
2018-05-25T03:58:05.735Z,88.13
2018-05-25T04:00:45.773Z,88.27
2018-05-25T04:03:15.072Z,88.34
2018-05-25T04:05:43.209Z,88.24
2018-05-25T04:08:11.351Z,88.30
2018-05-25T04:10:39.495Z,88.42
2018-05-25T04:13:07.610Z,88.54
2018-05-25T04:15:35.894Z,88.45
2018-05-25T04:18:04.066Z,88.38
2018-05-25T04:20:32.250Z,88.41
2018-05-25T04:23:00.403Z,88.63
2018-05-25T04:25:28.525Z,88.54
2018-05-25T04:27:56.671Z,88.56
2018-05-25T04:30:24.831Z,88.44
2018-05-25T04:32:52.977Z,88.57
2018-05-25T04:35:21.093Z,88.58
2018-05-25T04:37:49.229Z,88.87
2018-05-25T04:40:17.369Z,88.81
2018-05-25T04:42:45.495Z,88.92
2018-05-25T04:45:13.690Z,88.82
2018-05-25T04:47:41.835Z,88.80
2018-05-25T04:50:09.957Z,88.86
2018-05-25T04:52:38.074Z,88.92
2018-05-25T04:55:06.227Z,88.94
2018-05-25T04:57:34.390Z,88.83
2018-05-25T05:00:02.516Z,88.88
2018-05-25T05:02:30.639Z,88.99
2018-05-25T05:04:58.816Z,88.73
2018-05-25T05:07:26.901Z,88.77
2018-05-25T05:09:55.023Z,88.62
2018-05-25T05:12:23.154Z,88.73
2018-05-25T05:14:51.351Z,87.76
2018-05-25T05:17:19.428Z,86.57
2018-05-25T05:19:47.556Z,87.43
2018-05-25T05:22:15.703Z,87.82
2018-05-25T05:24:43.824Z,88.08
2018-05-25T05:27:12.136Z,88.39
2018-05-25T05:29:40.261Z,88.49
2018-05-25T05:32:08.382Z,88.10
2018-05-25T05:34:36.518Z,88.12
2018-05-25T05:37:04.645Z,88.11
2018-05-25T05:39:32.778Z,88.24
2018-05-25T05:42:00.909Z,88.34
2018-05-25T05:44:29.052Z,87.22
2018-05-25T05:46:57.180Z,87.67
2018-05-25T05:49:25.302Z,87.82
2018-05-25T05:51:53.440Z,87.32
2018-05-25T05:54:21.562Z,86.46
2018-05-25T05:56:49.693Z,86.34
2018-05-25T05:59:17.842Z,86.23
2018-05-25T06:01:45.996Z,86.31
2018-05-25T06:04:14.140Z,86.12
2018-05-25T06:06:42.243Z,86.17
2018-05-25T06:09:10.391Z,85.90
2018-05-25T06:11:38.510Z,85.79
2018-05-25T06:14:06.651Z,85.81
2018-05-25T06:16:34.779Z,85.84
2018-05-25T06:19:02.925Z,85.68
2018-05-25T06:21:31.015Z,85.32
2018-05-25T06:23:59.153Z,85.29
2018-05-25T06:26:27.271Z,85.49
2018-05-25T06:28:55.438Z,84.99
2018-05-25T06:31:23.553Z,84.79
2018-05-25T06:33:51.682Z,84.64
2018-05-25T06:36:19.824Z,84.39
2018-05-25T06:38:47.927Z,84.14
2018-05-25T06:41:16.112Z,84.33
2018-05-25T06:43:44.247Z,83.94
2018-05-25T06:46:12.354Z,84.04
2018-05-25T06:48:40.493Z,83.26
2018-05-25T06:51:08.635Z,83.33
2018-05-25T06:53:36.763Z,83.01
2018-05-25T06:56:04.897Z,82.78
2018-05-25T06:58:33.044Z,82.82
2018-05-25T07:01:01.181Z,82.97
2018-05-25T07:03:29.300Z,83.42
2018-05-25T07:05:57.669Z,83.35
2018-05-25T07:08:25.801Z,83.31
2018-05-25T07:10:53.920Z,83.12
2018-05-25T07:13:25.543Z,82.75
2018-05-25T07:15:53.661Z,82.88
2018-05-25T07:18:21.787Z,83.13
2018-05-25T07:20:49.909Z,82.94
2018-05-25T07:23:18.091Z,82.92
2018-05-25T07:25:46.277Z,82.63
2018-05-25T07:28:14.416Z,82.44
2018-05-25T07:30:42.552Z,82.14
2018-05-25T07:33:10.666Z,82.67
2018-05-25T07:35:38.891Z,82.36
2018-05-25T07:38:06.990Z,81.48
2018-05-25T07:40:35.134Z,81.63
2018-05-25T07:43:03.300Z,81.93
2018-05-25T07:45:31.425Z,81.89
2018-05-25T07:47:59.542Z,81.77
2018-05-25T07:50:30.153Z,81.34
2018-05-25T07:52:58.296Z,81.48
2018-05-25T07:55:26.435Z,81.60
2018-05-25T07:57:54.559Z,81.54
2018-05-25T08:00:22.695Z,81.40
2018-05-25T08:02:50.829Z,81.70
2018-05-25T08:05:18.953Z,81.66
2018-05-25T08:07:47.108Z,81.18
2018-05-25T08:10:15.241Z,81.05
2018-05-25T08:12:43.373Z,80.93
2018-05-25T08:15:11.505Z,80.66
2018-05-25T08:17:39.633Z,80.66
2018-05-25T08:20:07.771Z,80.79
2018-05-25T08:22:35.893Z,80.59
2018-05-25T08:25:04.051Z,80.44
2018-05-25T08:27:32.173Z,80.69
2018-05-25T08:30:00.305Z,80.76
2018-05-25T08:32:30.315Z,79.97
2018-05-25T08:34:58.457Z,79.90
2018-05-25T08:37:26.728Z,80.17
2018-05-25T08:39:54.865Z,80.54
2018-05-25T08:42:23.001Z,80.10
2018-05-25T08:44:51.112Z,80.20
2018-05-25T08:47:19.364Z,80.00
2018-05-25T08:49:47.500Z,79.87
2018-05-25T08:52:15.661Z,79.88
2018-05-25T08:54:43.797Z,80.02
2018-05-25T08:57:11.953Z,79.90
2018-05-25T08:59:40.070Z,80.52
2018-05-25T09:02:08.205Z,80.12
2018-05-25T09:04:36.350Z,79.60
2018-05-25T09:07:04.507Z,80.13
2018-05-25T09:09:32.644Z,80.43
2018-05-25T09:12:00.762Z,80.51
2018-05-25T09:14:28.889Z,80.41
2018-05-25T09:16:57.051Z,80.66
2018-05-25T09:19:25.167Z,80.60
2018-05-25T09:21:53.343Z,80.92
2018-05-25T09:24:21.430Z,80.62
2018-05-25T09:26:49.575Z,80.00
2018-05-25T09:29:17.705Z,79.51
2018-05-25T09:31:45.853Z,79.43
2018-05-25T09:34:13.988Z,78.80
2018-05-25T09:36:42.144Z,78.51
2018-05-25T09:39:10.299Z,77.92
2018-05-25T09:41:38.440Z,77.88
2018-05-25T09:44:06.587Z,76.64
2018-05-25T09:46:34.714Z,76.98
2018-05-25T09:49:02.856Z,77.61
2018-05-25T09:51:30.998Z,77.22
2018-05-25T09:53:59.144Z,77.43
2018-05-25T09:56:27.256Z,76.24
2018-05-25T09:58:55.440Z,76.41
2018-05-25T10:01:23.550Z,76.51
2018-05-25T10:03:51.692Z,76.98
2018-05-25T10:06:19.832Z,76.37
2018-05-25T10:08:47.972Z,75.04
2018-05-25T10:11:16.182Z,73.85
2018-05-25T10:13:44.310Z,73.59
2018-05-25T10:16:12.456Z,73.60
2018-05-25T10:18:40.570Z,74.37
2018-05-25T10:21:09.613Z,73.02
2018-05-25T10:23:37.759Z,73.81
2018-05-25T10:26:05.896Z,73.59
2018-05-25T10:28:34.054Z,72.75
2018-05-25T10:31:02.201Z,72.45
2018-05-25T10:33:30.316Z,70.90
2018-05-25T10:35:58.462Z,68.61
2018-05-25T10:38:26.584Z,69.37
2018-05-25T10:40:54.720Z,69.54
2018-05-25T10:43:22.888Z,69.36
2018-05-25T10:45:51.047Z,68.20
2018-05-25T10:48:19.151Z,70.10
2018-05-25T10:50:47.314Z,69.06
2018-05-25T10:53:15.438Z,70.51
2018-05-25T10:55:43.561Z,71.06
2018-05-25T10:58:11.706Z,71.70
2018-05-25T11:00:39.830Z,72.46
2018-05-25T11:03:07.957Z,72.77
2018-05-25T11:05:36.173Z,71.70
2018-05-25T11:08:04.283Z,71.80
2018-05-25T11:10:32.406Z,71.63
2018-05-25T11:13:00.551Z,71.31
2018-05-25T11:15:29.620Z,72.23
2018-05-25T11:17:57.754Z,70.34
2018-05-25T11:20:25.863Z,70.70
2018-05-25T11:22:53.998Z,69.54
2018-05-25T11:25:22.137Z,69.77
2018-05-25T11:27:50.280Z,69.81
2018-05-25T11:30:18.428Z,70.20
2018-05-25T11:32:46.578Z,69.77
2018-05-25T11:35:14.725Z,68.69
2018-05-25T11:37:42.876Z,67.11
2018-05-25T11:40:11.012Z,67.14
2018-05-25T11:42:39.156Z,65.96
2018-05-25T11:45:07.294Z,67.01
2018-05-25T11:47:35.415Z,66.82
2018-05-25T11:50:03.561Z,66.67
2018-05-25T11:52:32.283Z,67.58
2018-05-25T11:55:00.409Z,66.63
2018-05-25T11:57:28.535Z,65.87
2018-05-25T11:59:56.699Z,65.48
2018-05-25T12:02:24.821Z,66.72
2018-05-25T12:04:52.971Z,64.73
2018-05-25T12:07:21.102Z,65.36
2018-05-25T12:09:49.248Z,65.19
2018-05-25T12:12:17.380Z,61.66
2018-05-25T12:14:45.509Z,62.68
2018-05-25T12:17:13.670Z,64.01
2018-05-25T12:19:41.792Z,64.02
2018-05-25T12:22:09.911Z,64.37
2018-05-25T12:24:38.072Z,64.00
2018-05-25T12:27:06.188Z,59.89
2018-05-25T12:29:34.323Z,61.11
2018-05-25T12:32:02.478Z,60.84
2018-05-25T12:34:30.606Z,61.62
2018-05-25T12:36:58.711Z,59.83
2018-05-25T12:39:26.837Z,58.99
2018-05-25T12:41:54.984Z,58.52
2018-05-25T12:44:23.136Z,61.13
2018-05-25T12:46:51.305Z,60.98
2018-05-25T12:49:19.470Z,59.98
2018-05-25T12:51:47.593Z,60.83
2018-05-25T12:54:15.753Z,59.13
2018-05-25T12:56:43.926Z,59.07
2018-05-25T12:59:12.024Z,59.43
2018-05-25T13:01:40.154Z,61.31
2018-05-25T13:04:08.274Z,62.00
2018-05-25T13:06:36.394Z,62.99
2018-05-25T13:09:04.551Z,63.63
2018-05-25T13:11:32.693Z,62.71
2018-05-25T13:14:00.848Z,61.79
2018-05-25T13:16:28.944Z,61.94
2018-05-25T13:18:57.112Z,62.96
2018-05-25T13:21:25.233Z,63.33
2018-05-25T13:23:53.346Z,62.09
2018-05-25T13:26:24.818Z,62.78
2018-05-25T13:28:52.953Z,65.07
2018-05-25T13:31:21.054Z,65.72
2018-05-25T13:33:49.182Z,65.11
2018-05-25T13:36:17.336Z,64.47
2018-05-25T13:38:45.496Z,65.15
2018-05-25T13:41:13.647Z,65.27
2018-05-25T13:43:41.796Z,64.62
2018-05-25T13:46:09.917Z,64.99
2018-05-25T13:48:38.063Z,65.19
2018-05-25T13:51:06.176Z,64.46
2018-05-25T13:53:34.283Z,63.21
2018-05-25T13:56:02.413Z,62.11
2018-05-25T13:58:30.537Z,61.70
2018-05-25T14:00:58.659Z,61.80
2018-05-25T14:03:26.771Z,61.72
2018-05-25T14:05:54.910Z,60.19
2018-05-25T14:08:23.003Z,58.75
2018-05-25T14:10:51.159Z,60.08
2018-05-25T14:13:19.258Z,60.84
2018-05-25T14:15:47.408Z,61.54
2018-05-25T14:18:15.546Z,60.81
2018-05-25T14:20:43.685Z,61.72
2018-05-25T14:23:11.886Z,62.97
2018-05-25T14:25:40.026Z,63.25
2018-05-25T14:28:08.142Z,62.58
2018-05-25T14:30:36.269Z,63.32
2018-05-25T14:33:04.405Z,64.24
2018-05-25T14:35:32.552Z,64.37
2018-05-25T14:38:00.698Z,63.77
2018-05-25T14:40:28.810Z,63.76
2018-05-25T14:42:56.991Z,63.34
2018-05-25T14:45:28.365Z,63.52
2018-05-25T14:47:56.493Z,62.32
2018-05-25T14:50:24.635Z,60.92
2018-05-25T14:52:52.760Z,60.44
2018-05-25T14:55:20.896Z,61.52
2018-05-25T14:57:49.115Z,61.00
2018-05-25T15:00:17.237Z,61.42
2018-05-25T15:02:45.369Z,62.47
2018-05-25T15:05:13.546Z,62.92
2018-05-25T15:07:41.689Z,64.58
2018-05-25T15:10:09.840Z,64.16
2018-05-25T15:12:37.993Z,63.50
2018-05-25T15:15:06.129Z,63.47
2018-05-25T15:17:34.273Z,64.60
2018-05-25T15:20:02.378Z,63.54
2018-05-25T15:22:30.505Z,63.09
2018-05-25T15:24:58.633Z,64.33
2018-05-25T15:27:26.761Z,64.97
2018-05-25T15:29:54.901Z,65.60
2018-05-25T15:32:23.049Z,66.06
2018-05-25T15:34:51.179Z,66.62
2018-05-25T15:37:19.352Z,66.75
2018-05-25T15:39:47.488Z,66.82
2018-05-25T15:42:15.608Z,66.32
2018-05-25T15:44:43.726Z,66.47
2018-05-25T15:47:11.862Z,66.97
2018-05-25T15:49:40.006Z,67.37
2018-05-25T15:52:08.119Z,67.68
2018-05-25T15:54:36.264Z,67.16
2018-05-25T15:57:04.404Z,67.48
2018-05-25T15:59:32.544Z,68.13
2018-05-25T16:02:01.119Z,68.44
2018-05-25T16:04:29.255Z,68.81
2018-05-25T16:06:57.399Z,68.94
2018-05-25T16:09:25.531Z,68.88
2018-05-25T16:11:53.661Z,68.81
2018-05-25T16:14:21.869Z,68.73
2018-05-25T16:16:49.961Z,66.84
2018-05-25T16:19:18.096Z,65.47
2018-05-25T16:21:46.223Z,66.45
2018-05-25T16:24:14.388Z,67.47
2018-05-25T16:26:42.505Z,66.78
2018-05-25T16:29:10.641Z,64.92
2018-05-25T16:31:38.781Z,63.18
2018-05-25T16:34:06.930Z,62.44
2018-05-25T16:36:35.007Z,61.17
2018-05-25T16:39:03.144Z,61.59
2018-05-25T16:41:31.274Z,61.83
2018-05-25T16:43:59.392Z,62.56
2018-05-25T16:46:27.549Z,61.99
2018-05-25T16:48:55.699Z,60.49
2018-05-25T16:51:23.831Z,60.80
2018-05-25T16:53:51.994Z,60.34
2018-05-25T16:56:20.104Z,61.06
2018-05-25T16:58:48.222Z,62.05
2018-05-25T17:01:16.370Z,62.65
2018-05-25T17:03:44.495Z,61.80
2018-05-25T17:06:12.622Z,62.05
2018-05-25T17:08:40.749Z,62.49
2018-05-25T17:11:08.894Z,62.18
2018-05-25T17:13:37.023Z,62.78
2018-05-25T17:16:05.169Z,62.33
2018-05-25T17:18:33.299Z,62.52
2018-05-25T17:21:01.475Z,62.32
2018-05-25T17:23:29.577Z,62.48
2018-05-25T17:25:57.718Z,62.30
2018-05-25T17:28:29.364Z,63.10
2018-05-25T17:30:57.529Z,64.77
2018-05-25T17:33:25.684Z,65.91
2018-05-25T17:35:53.806Z,65.37
2018-05-25T17:38:25.671Z,65.65
2018-05-25T17:40:53.811Z,66.02
2018-05-25T17:43:28.335Z,66.72
2018-05-25T17:45:56.436Z,67.22
2018-05-25T17:48:24.538Z,66.53
2018-05-25T17:50:52.689Z,66.15
2018-05-25T17:53:20.805Z,66.21
2018-05-25T17:55:48.944Z,66.29
2018-05-25T17:58:17.094Z,66.20
2018-05-25T18:00:45.223Z,66.47
2018-05-25T18:03:13.418Z,67.45
2018-05-25T18:05:41.501Z,67.82
2018-05-25T18:08:09.610Z,68.37
2018-05-25T18:10:37.718Z,69.09
2018-05-25T18:13:05.871Z,69.58
2018-05-25T18:15:37.360Z,69.45
2018-05-25T18:18:05.498Z,70.07
2018-05-25T18:20:33.618Z,69.11
2018-05-25T18:23:01.850Z,69.40
2018-05-25T18:25:29.947Z,69.60
2018-05-25T18:27:58.091Z,69.02
2018-05-25T18:30:26.187Z,69.60
2018-05-25T18:32:54.294Z,69.78
2018-05-25T18:35:22.431Z,69.47
2018-05-25T18:37:50.563Z,69.02
2018-05-25T18:40:18.705Z,68.74
2018-05-25T18:42:46.875Z,69.47
2018-05-25T18:45:15.042Z,69.95
2018-05-25T18:47:43.162Z,70.33
2018-05-25T18:50:11.280Z,69.70
2018-05-25T18:52:39.379Z,69.03
2018-05-25T18:55:07.482Z,68.31
2018-05-25T18:57:35.613Z,68.80
2018-05-25T19:00:03.735Z,69.40
2018-05-25T19:02:32.166Z,69.65
2018-05-25T19:05:00.309Z,69.36
2018-05-25T19:07:28.447Z,69.63
2018-05-25T19:09:56.547Z,69.33
2018-05-25T19:12:24.717Z,68.98
2018-05-25T19:14:52.771Z,68.95
2018-05-25T19:17:20.912Z,69.18
2018-05-25T19:19:49.085Z,69.50
2018-05-25T19:22:17.184Z,69.52
2018-05-25T19:24:45.320Z,69.76
2018-05-25T19:27:13.454Z,69.88
2018-05-25T19:29:41.567Z,69.73
2018-05-25T19:32:09.674Z,70.44
2018-05-25T19:34:37.809Z,71.02
2018-05-25T19:37:05.912Z,70.97
2018-05-25T19:39:34.025Z,71.00
2018-05-25T19:42:02.150Z,71.19
2018-05-25T19:44:30.298Z,71.65
2018-05-25T19:47:02.036Z,71.79
2018-05-25T19:49:30.169Z,71.60
2018-05-25T19:51:58.293Z,71.64
2018-05-25T19:54:26.405Z,71.81
2018-05-25T19:56:54.536Z,71.15
2018-05-25T19:59:22.636Z,71.59
2018-05-25T20:01:50.734Z,71.84
2018-05-25T20:04:18.878Z,71.20
2018-05-25T20:06:47.011Z,70.79
2018-05-25T20:09:15.132Z,71.54
2018-05-25T20:11:43.257Z,71.88
2018-05-25T20:14:11.402Z,72.31
2018-05-25T20:16:39.518Z,72.15
2018-05-25T20:19:07.641Z,71.86
2018-05-25T20:21:35.886Z,72.45
2018-05-25T20:24:04.010Z,72.69
2018-05-25T20:26:32.138Z,73.23
2018-05-25T20:29:00.250Z,73.55
2018-05-25T20:31:31.558Z,73.78
2018-05-25T20:33:59.711Z,73.56
2018-05-25T20:36:27.846Z,73.80
2018-05-25T20:38:55.956Z,73.99
2018-05-25T20:41:24.104Z,74.38
2018-05-25T20:43:52.224Z,74.52
2018-05-25T20:46:20.348Z,74.62
2018-05-25T20:48:48.484Z,75.10
2018-05-25T20:51:16.620Z,75.27
2018-05-25T20:53:44.742Z,75.42
2018-05-25T20:56:12.891Z,75.55
2018-05-25T20:58:41.018Z,75.71
2018-05-25T21:01:09.183Z,75.97
2018-05-25T21:03:37.495Z,76.22
2018-05-25T21:06:05.621Z,76.27
2018-05-25T21:08:33.737Z,76.36
2018-05-25T21:11:01.889Z,76.54
2018-05-25T21:13:29.997Z,76.69
2018-05-25T21:15:58.117Z,76.71
2018-05-25T21:18:26.413Z,76.99
2018-05-25T21:20:54.532Z,77.09
2018-05-25T21:23:22.675Z,77.27
2018-05-25T21:25:50.806Z,77.56
2018-05-25T21:28:19.107Z,77.69
2018-05-25T21:30:47.225Z,77.92
2018-05-25T21:33:15.357Z,78.17
2018-05-25T21:35:43.477Z,78.34
2018-05-25T21:38:11.616Z,78.39
2018-05-25T21:40:39.743Z,78.53
2018-05-25T21:43:07.851Z,78.78
2018-05-25T21:45:35.985Z,78.86
2018-05-25T21:48:04.125Z,79.06
2018-05-25T21:50:32.266Z,79.21
2018-05-25T21:53:00.374Z,79.46
2018-05-25T21:55:28.527Z,79.65
2018-05-25T21:58:00.350Z,79.51
2018-05-25T22:00:30.162Z,79.68
2018-05-25T22:02:58.315Z,79.79
2018-05-25T22:05:26.454Z,80.02
2018-05-25T22:07:54.786Z,80.27
2018-05-25T22:10:22.895Z,80.15
2018-05-25T22:12:51.011Z,80.53
2018-05-25T22:15:19.161Z,80.66
2018-05-25T22:17:47.285Z,80.72
2018-05-25T22:20:15.414Z,80.87
2018-05-25T22:22:43.655Z,80.99
2018-05-25T22:25:11.879Z,81.05
2018-05-25T22:27:40.050Z,81.14
2018-05-25T22:30:08.189Z,81.16
2018-05-25T22:32:36.447Z,81.44
2018-05-25T22:35:04.444Z,81.59
2018-05-25T22:37:32.687Z,81.88
2018-05-25T22:40:00.841Z,82.02
2018-05-25T22:42:40.846Z,82.00
2018-05-25T22:45:20.713Z,82.26
2018-05-25T22:48:00.694Z,82.31
2018-05-25T22:50:40.674Z,82.30
2018-05-25T22:53:13.818Z,82.35
2018-05-25T22:55:42.068Z,82.49
2018-05-25T22:58:10.207Z,82.42
2018-05-25T23:00:38.344Z,82.30
2018-05-25T23:03:06.450Z,82.36
2018-05-25T23:05:34.567Z,82.55
2018-05-25T23:08:02.798Z,82.76
2018-05-25T23:10:30.967Z,82.65
2018-05-25T23:12:59.169Z,82.79
2018-05-25T23:15:27.403Z,82.90
2018-05-25T23:17:55.638Z,83.02
2018-05-25T23:20:23.889Z,83.46
2018-05-25T23:22:52.299Z,83.54
2018-05-25T23:25:20.406Z,83.60
2018-05-25T23:27:48.546Z,83.77
2018-05-25T23:30:16.703Z,83.94
2018-05-25T23:32:44.848Z,84.13
2018-05-25T23:35:12.969Z,84.07
2018-05-25T23:37:41.127Z,84.10
2018-05-25T23:40:09.231Z,84.11
2018-05-25T23:42:37.385Z,84.13
2018-05-25T23:45:05.707Z,84.19
2018-05-25T23:47:33.839Z,84.26
2018-05-25T23:50:01.970Z,84.37
2018-05-25T23:52:30.121Z,84.27
2018-05-25T23:54:58.287Z,84.29
2018-05-25T23:57:26.390Z,84.29
2018-05-25T23:59:54.544Z,84.19
